Umar1 — 9HA2498 — position and weather

sailwx.info

Track history (hours):
 
Tides and Currents Weather Stations Pressure Air Temp Water Temp Dewpoint Dewpoint Depression Visibility Wind Speed Wind Dir Waves Ship Positions

Umar1

Last reported at 2015-Jul-04 20:09 UTC. Time now 2015-Jul-05 00:13 UTC.
Position N 50°16' W 000°20'.

Length 100 m; draft 5.7 m.

Type: Ship. MMSI: 248751000.

Date/timePositionNaut miles runAvg speedWind from/ knotsBaromVisibWave heightAir tempDewpointWater temp
2015-Jul-04 20:09N 50°16' W 000°20'1013.0
2015-Jul-04 19:21N 50°14' W 000°36'1012.0
2015-Jul-04 18:31N 50°11' W 000°51'1410.3
2015-Jul-04 17:09N 50°07' W 001°12'5 9.1
2015-Jul-04 16:33N 50°06' W 001°20'  
2015-Jul-01 06:08N 39°16' W 010°03'610.8
2015-Jul-01 05:33N 39°10' W 010°02'1111.1
2015-Jul-01 04:33N 38°59' W 010°00'1211.5
2015-Jul-01 03:33N 38°48' W 009°58'1111.4
2015-Jul-01 02:33N 38°36' W 009°55'1111.4
2015-Jul-01 01:33N 38°25' W 009°52'1111.1
2015-Jul-01 00:33N 38°14' W 009°49'1211.0
2015-Jun-30 23:27N 38°03' W 009°45'2411.2
2015-Jun-30 21:18N 37°39' W 009°38'911.1
2015-Jun-30 20:30N 37°31' W 009°36'1111.1
2015-Jun-30 19:32N 37°20' W 009°33'5210.1
2015-Jun-30 14:23N 36°37' W 008°56'1011.4
2015-Jun-30 13:30N 36°35' W 008°43'  
2015-Jun-27 21:24N 36°10' W 005°26'0 0.1
2015-Jun-27 20:33N 36°10' W 005°26'0 0.0
2015-Jun-27 19:33N 36°10' W 005°26'0 0.0
2015-Jun-27 18:33N 36°10' W 005°26'0 0.1
2015-Jun-27 17:33N 36°10' W 005°26'0 0.0
2015-Jun-27 16:31N 36°10' W 005°26'6 1.5
2015-Jun-27 12:21N 36°05' W 005°20'2 2.3
2015-Jun-27 11:26N 36°04' W 005°22'1011.7
2015-Jun-27 10:33N 35°54' W 005°19'0 0.4
2015-Jun-27 09:32N 35°54' W 005°19'0 0.0
2015-Jun-27 08:32N 35°54' W 005°19'0 0.0
2015-Jun-27 07:32N 35°54' W 005°19'0 0.5
2015-Jun-27 06:33N 35°54' W 005°19'4 4.1
2015-Jun-27 05:33N 35°57' W 005°22'  
Track history (hours):
 
Tides and Currents Weather Stations Pressure Air Temp Water Temp Dewpoint Dewpoint Depression Visibility Wind Speed Wind Dir Waves Ship Positions

Umar1

Last reported at 2015-Jul-04 20:09 UTC. Time now 2015-Jul-05 00:13 UTC.
Position N 50°16' W 000°20'.

Length 100 m; draft 5.7 m.

Type: Ship. MMSI: 248751000.

Date/timePositionNaut miles runAvg speedWind from/ knotsBaromVisibWave heightAir tempDewpointWater temp
2015-Jul-04 20:09N 50°16' W 000°20'1013.0
2015-Jul-04 19:21N 50°14' W 000°36'1012.0
2015-Jul-04 18:31N 50°11' W 000°51'1410.3
2015-Jul-04 17:09N 50°07' W 001°12'5 9.1
2015-Jul-04 16:33N 50°06' W 001°20'  
2015-Jul-01 06:08N 39°16' W 010°03'610.8
2015-Jul-01 05:33N 39°10' W 010°02'1111.1
2015-Jul-01 04:33N 38°59' W 010°00'1211.5
2015-Jul-01 03:33N 38°48' W 009°58'1111.4
2015-Jul-01 02:33N 38°36' W 009°55'1111.4
2015-Jul-01 01:33N 38°25' W 009°52'1111.1
2015-Jul-01 00:33N 38°14' W 009°49'1211.0
2015-Jun-30 23:27N 38°03' W 009°45'2411.2
2015-Jun-30 21:18N 37°39' W 009°38'911.1
2015-Jun-30 20:30N 37°31' W 009°36'1111.1
2015-Jun-30 19:32N 37°20' W 009°33'5210.1
2015-Jun-30 14:23N 36°37' W 008°56'1011.4
2015-Jun-30 13:30N 36°35' W 008°43'  
2015-Jun-27 21:24N 36°10' W 005°26'0 0.1
2015-Jun-27 20:33N 36°10' W 005°26'0 0.0
2015-Jun-27 19:33N 36°10' W 005°26'0 0.0
2015-Jun-27 18:33N 36°10' W 005°26'0 0.1
2015-Jun-27 17:33N 36°10' W 005°26'0 0.0
2015-Jun-27 16:31N 36°10' W 005°26'6 1.5
2015-Jun-27 12:21N 36°05' W 005°20'2 2.3
2015-Jun-27 11:26N 36°04' W 005°22'1011.7
2015-Jun-27 10:33N 35°54' W 005°19'0 0.4
2015-Jun-27 09:32N 35°54' W 005°19'0 0.0
2015-Jun-27 08:32N 35°54' W 005°19'0 0.0
2015-Jun-27 07:32N 35°54' W 005°19'0 0.5
2015-Jun-27 06:33N 35°54' W 005°19'4 4.1
2015-Jun-27 05:33N 35°57' W 005°22'  

Dump ship's entire track history